createdAt,value
2019-01-16T00:00:49.687Z,50.4
2019-01-16T00:01:39.511Z,50.4
2019-01-16T00:02:29.798Z,50.4
2019-01-16T00:03:20.241Z,50.4
2019-01-16T00:04:10.226Z,50.3
2019-01-16T00:04:59.693Z,50.3
2019-01-16T00:05:49.483Z,50.3
2019-01-16T00:06:40.649Z,50.3
2019-01-16T00:07:30.427Z,50.3
2019-01-16T00:08:20.468Z,50.3
2019-01-16T00:09:10.533Z,50.3
2019-01-16T00:10:00.696Z,50.3
2019-01-16T00:10:50.098Z,50.3
2019-01-16T00:11:40.701Z,50.3
2019-01-16T00:12:30.743Z,50.3
2019-01-16T00:13:20.530Z,50.3
2019-01-16T00:14:10.307Z,50.2
2019-01-16T00:15:00.410Z,50.2
2019-01-16T00:15:50.505Z,50.2
2019-01-16T00:16:40.273Z,50.2
2019-01-16T00:17:30.386Z,50.2
2019-01-16T00:18:21.643Z,50.2
2019-01-16T00:19:11.208Z,50.2
2019-01-16T00:20:01.275Z,50.1
2019-01-16T00:20:51.592Z,50.1
2019-01-16T00:21:41.369Z,50.1
2019-01-16T00:22:31.436Z,50.1
2019-01-16T00:23:20.930Z,50.1
2019-01-16T00:24:11.823Z,50.1
2019-01-16T00:25:00.762Z,50.1
2019-01-16T00:25:51.952Z,50.1
2019-01-16T00:26:41.435Z,50.1
2019-01-16T00:27:31.497Z,50.1
2019-01-16T00:28:21.549Z,50.1
2019-01-16T00:29:11.872Z,50.1
2019-01-16T00:30:01.759Z,50
2019-01-16T00:30:51.722Z,50
2019-01-16T00:31:42.052Z,50
2019-01-16T00:32:32.105Z,50
2019-01-16T00:33:22.249Z,50
2019-01-16T00:34:12.220Z,50
2019-01-16T00:35:02.367Z,49.9
2019-01-16T00:35:51.007Z,49.9
2019-01-16T00:36:41.897Z,49.9
2019-01-16T00:37:32.239Z,49.9
2019-01-16T00:38:22.021Z,49.9
2019-01-16T00:39:12.087Z,49.9
2019-01-16T00:40:02.412Z,49.9
2019-01-16T00:40:52.681Z,49.9
2019-01-16T00:41:42.461Z,49.9
2019-01-16T00:42:32.499Z,49.9
2019-01-16T00:43:22.276Z,49.9
2019-01-16T00:44:13.166Z,49.9
2019-01-16T00:45:02.407Z,49.9
2019-01-16T00:45:52.717Z,49.8
2019-01-16T00:46:43.324Z,49.8
2019-01-16T00:47:32.846Z,49.8
2019-01-16T00:48:28.603Z,49.8
2019-01-16T00:49:12.988Z,49.8
2019-01-16T00:50:02.803Z,49.8
2019-01-16T00:50:53.066Z,49.8
2019-01-16T00:51:43.686Z,49.8
2019-01-16T00:52:32.895Z,49.8
2019-01-16T00:53:23.281Z,49.8
2019-01-16T00:54:13.316Z,49.8
2019-01-16T00:55:03.640Z,49.8
2019-01-16T00:55:53.680Z,49.7
2019-01-16T00:56:43.726Z,49.7
2019-01-16T00:57:34.090Z,49.7
2019-01-16T00:58:23.303Z,49.7
2019-01-16T00:59:14.933Z,49.7
2019-01-16T01:00:03.474Z,49.7
2019-01-16T01:00:53.756Z,49.6
2019-01-16T01:01:43.545Z,49.6
2019-01-16T01:02:34.118Z,49.6
2019-01-16T01:03:23.945Z,49.6
2019-01-16T01:04:13.693Z,49.6
2019-01-16T01:05:04.327Z,49.6
2019-01-16T01:05:54.082Z,49.6
2019-01-16T01:06:44.430Z,49.6
2019-01-16T01:07:34.182Z,49.6
2019-01-16T01:08:24.282Z,49.6
2019-01-16T01:09:14.869Z,49.6
2019-01-16T01:10:05.018Z,49.6
2019-01-16T01:10:54.425Z,49.5
2019-01-16T01:11:43.937Z,49.5
2019-01-16T01:12:34.525Z,49.5
2019-01-16T01:13:24.597Z,49.5
2019-01-16T01:14:15.208Z,49.5
2019-01-16T01:15:05.348Z,49.5
2019-01-16T01:15:55.304Z,49.5
2019-01-16T01:16:45.109Z,49.4
2019-01-16T01:17:35.155Z,49.4
2019-01-16T01:18:32.710Z,49.4
2019-01-16T01:19:15.259Z,49.4
2019-01-16T01:20:05.059Z,49.4
2019-01-16T01:20:55.376Z,49.4
2019-01-16T01:21:45.500Z,49.4
2019-01-16T01:22:35.844Z,49.4
2019-01-16T01:23:24.981Z,49.4
2019-01-16T01:24:15.334Z,49.4
2019-01-16T01:25:05.954Z,49.4
2019-01-16T01:25:55.462Z,49.4
2019-01-16T01:26:46.046Z,49.4
2019-01-16T01:27:35.840Z,49.3
2019-01-16T01:28:25.891Z,49.3
2019-01-16T01:29:16.203Z,49.3
2019-01-16T01:30:05.756Z,49.3
2019-01-16T01:30:56.160Z,49.3
2019-01-16T01:31:45.838Z,49.3
2019-01-16T01:32:35.893Z,49.3
2019-01-16T01:33:26.515Z,49.3
2019-01-16T01:34:16.376Z,49.3
2019-01-16T01:35:06.631Z,49.3
2019-01-16T01:35:56.668Z,49.3
2019-01-16T01:36:46.168Z,49.3
2019-01-16T01:37:36.503Z,49.2
2019-01-16T01:38:26.845Z,49.2
2019-01-16T01:39:16.334Z,49.2
2019-01-16T01:40:06.675Z,49.2
2019-01-16T01:40:56.453Z,49.2
2019-01-16T01:41:46.245Z,49.2
2019-01-16T01:42:36.563Z,49.1
2019-01-16T01:43:26.637Z,49.1
2019-01-16T01:44:16.679Z,49.1
2019-01-16T01:45:06.743Z,49.1
2019-01-16T01:45:57.359Z,49.1
2019-01-16T01:46:46.845Z,49.1
2019-01-16T01:47:36.912Z,49.1
2019-01-16T01:48:26.965Z,49.1
2019-01-16T01:49:17.362Z,49.1
2019-01-16T01:50:06.812Z,49.1
2019-01-16T01:50:56.352Z,49.1
2019-01-16T01:51:46.964Z,49.1
2019-01-16T01:52:37.519Z,49.1
2019-01-16T01:53:27.581Z,49
2019-01-16T01:54:17.911Z,49
2019-01-16T01:55:07.412Z,49
2019-01-16T01:55:58.023Z,49
2019-01-16T01:56:47.534Z,49
2019-01-16T01:57:37.312Z,48.9
2019-01-16T01:58:27.372Z,48.9
2019-01-16T01:59:17.419Z,48.9
2019-01-16T02:00:08.029Z,48.9
2019-01-16T02:00:58.375Z,48.9
2019-01-16T02:01:47.586Z,48.9
2019-01-16T02:02:38.249Z,48.9
2019-01-16T02:03:28.251Z,48.9
2019-01-16T02:04:18.035Z,48.9
2019-01-16T02:05:07.818Z,48.9
2019-01-16T02:05:58.138Z,48.9
2019-01-16T02:06:48.641Z,48.9
2019-01-16T02:07:38.584Z,48.9
2019-01-16T02:08:28.858Z,48.9
2019-01-16T02:09:18.646Z,48.9
2019-01-16T02:10:08.414Z,48.8
2019-01-16T02:10:58.816Z,48.8
2019-01-16T02:11:47.706Z,48.8
2019-01-16T02:12:38.927Z,48.8
2019-01-16T02:13:28.928Z,48.8
2019-01-16T02:14:18.485Z,48.8
2019-01-16T02:15:08.763Z,48.8
2019-01-16T02:15:59.110Z,48.8
2019-01-16T02:16:48.330Z,48.8
2019-01-16T02:17:38.438Z,48.8
2019-01-16T02:18:28.232Z,48.8
2019-01-16T02:19:19.150Z,48.8
2019-01-16T02:20:09.175Z,48.7
2019-01-16T02:20:59.235Z,48.7
2019-01-16T02:21:48.733Z,48.7
2019-01-16T02:22:38.792Z,48.7
2019-01-16T02:23:29.145Z,48.6
2019-01-16T02:24:18.907Z,48.6
2019-01-16T02:25:09.035Z,48.6
2019-01-16T02:25:59.295Z,48.6
2019-01-16T02:26:49.348Z,48.6
2019-01-16T02:27:40.165Z,48.6
2019-01-16T02:28:29.128Z,48.6
2019-01-16T02:29:20.020Z,48.6
2019-01-16T02:30:10.173Z,48.6
2019-01-16T02:30:59.887Z,48.6
2019-01-16T02:31:49.910Z,48.6
2019-01-16T02:32:40.280Z,48.6
2019-01-16T02:33:30.100Z,48.6
2019-01-16T02:34:20.370Z,48.5
2019-01-16T02:35:10.122Z,48.6
2019-01-16T02:36:00.185Z,48.5
2019-01-16T02:36:50.872Z,48.5
2019-01-16T02:37:40.341Z,48.5
2019-01-16T02:38:30.668Z,48.5
2019-01-16T02:39:20.720Z,48.5
2019-01-16T02:40:10.742Z,48.4
2019-01-16T02:41:00.546Z,48.4
2019-01-16T02:41:50.377Z,48.4
2019-01-16T02:42:40.651Z,48.4
2019-01-16T02:43:30.966Z,48.4
2019-01-16T02:44:20.821Z,48.4
2019-01-16T02:45:10.802Z,48.4
2019-01-16T02:46:01.176Z,48.4
2019-01-16T02:46:50.433Z,48.4
2019-01-16T02:47:40.911Z,48.4
2019-01-16T02:48:30.318Z,48.4
2019-01-16T02:49:20.898Z,48.3
2019-01-16T02:50:11.710Z,48.3
2019-01-16T02:51:01.486Z,48.3
2019-01-16T02:51:51.611Z,48.3
2019-01-16T02:52:41.400Z,48.3
2019-01-16T02:53:31.378Z,48.3
2019-01-16T02:54:22.016Z,48.3
2019-01-16T02:55:11.553Z,48.3
2019-01-16T02:56:01.773Z,48.2
2019-01-16T02:56:51.659Z,48
2019-01-16T02:57:41.921Z,47.8
2019-01-16T02:58:31.781Z,47.6
2019-01-16T02:59:22.353Z,47.3
2019-01-16T03:00:11.561Z,46.7
2019-01-16T03:01:02.423Z,46.3
2019-01-16T03:01:51.992Z,46
2019-01-16T03:02:42.268Z,45.9
2019-01-16T03:03:31.773Z,45.8
2019-01-16T03:04:22.108Z,45.8
2019-01-16T03:05:12.517Z,45.8
2019-01-16T03:08:45.998Z,46.1
2019-01-16T03:09:35.427Z,46.3
2019-01-16T03:10:26.309Z,46.5
2019-01-16T03:11:16.302Z,46.6
2019-01-16T03:12:06.455Z,46.8
2019-01-16T03:12:56.171Z,46.9
2019-01-16T03:13:45.933Z,47.1
2019-01-16T03:14:36.564Z,47.3
2019-01-16T03:15:26.317Z,47.5
2019-01-16T03:16:16.114Z,47.7
2019-01-16T03:17:06.469Z,47.8
2019-01-16T03:17:56.237Z,48
2019-01-16T03:18:46.819Z,48.2
2019-01-16T03:19:36.713Z,48.3
2019-01-16T03:20:26.474Z,48.4
2019-01-16T03:21:17.000Z,48.6
2019-01-16T03:22:07.120Z,48.8
2019-01-16T03:22:57.121Z,48.9
2019-01-16T03:23:46.334Z,49.1
2019-01-16T03:24:36.714Z,49.3
2019-01-16T03:25:26.734Z,49.4
2019-01-16T03:26:17.384Z,49.6
2019-01-16T03:27:07.109Z,49.8
2019-01-16T03:27:57.469Z,49.9
2019-01-16T03:28:47.501Z,49.9
2019-01-16T03:29:36.739Z,50
2019-01-16T03:30:27.405Z,50.1
2019-01-16T03:31:17.312Z,50.1
2019-01-16T03:32:08.001Z,50.1
2019-01-16T03:32:57.339Z,50.1
2019-01-16T03:33:47.273Z,50.1
2019-01-16T03:34:37.471Z,50.1
2019-01-16T03:35:27.951Z,50.1
2019-01-16T03:36:17.562Z,50.2
2019-01-16T03:37:07.786Z,50.1
2019-01-16T03:37:58.120Z,50.2
2019-01-16T03:38:48.190Z,50.1
2019-01-16T03:39:37.265Z,50.1
2019-01-16T03:40:28.270Z,50.1
2019-01-16T03:41:18.083Z,50.1
2019-01-16T03:42:08.456Z,50.1
2019-01-16T03:42:58.187Z,50.1
2019-01-16T03:43:48.227Z,50.1
2019-01-16T03:44:38.090Z,50.1
2019-01-16T03:45:28.725Z,50.1
2019-01-16T03:46:18.408Z,50.1
2019-01-16T03:47:08.183Z,50.1
2019-01-16T03:47:58.562Z,50.1
2019-01-16T03:48:48.545Z,50.1
2019-01-16T03:49:38.687Z,50.1
2019-01-16T03:50:28.966Z,50.1
2019-01-16T03:51:18.477Z,50.1
2019-01-16T03:52:09.138Z,50.1
2019-01-16T03:52:58.880Z,50.1
2019-01-16T03:53:48.610Z,50.1
2019-01-16T03:54:38.967Z,50.1
2019-01-16T03:55:28.847Z,50.1
2019-01-16T03:56:18.779Z,50.1
2019-01-16T03:57:08.860Z,50.1
2019-01-16T03:57:59.472Z,50.1
2019-01-16T03:58:49.239Z,50.1
2019-01-16T03:59:39.043Z,50.1
2019-01-16T04:00:29.612Z,50.1
2019-01-16T04:01:19.411Z,50.1
2019-01-16T04:02:09.756Z,50.1
2019-01-16T04:02:59.807Z,50.1
2019-01-16T04:03:49.569Z,50.1
2019-01-16T04:04:39.629Z,50.1
2019-01-16T04:05:29.974Z,50.1
2019-01-16T04:06:20.023Z,50.1
2019-01-16T04:07:09.519Z,50.1
2019-01-16T04:07:59.559Z,50.1
2019-01-16T04:08:49.660Z,50.1
2019-01-16T04:09:39.984Z,50.1
2019-01-16T04:10:29.716Z,50.1
2019-01-16T04:11:20.070Z,50.1
2019-01-16T04:12:09.709Z,50.1
2019-01-16T04:13:00.186Z,50.1
2019-01-16T04:13:49.982Z,50
2019-01-16T04:14:40.606Z,50
2019-01-16T04:15:30.650Z,50.1
2019-01-16T04:16:20.723Z,50
2019-01-16T04:17:10.053Z,50
2019-01-16T04:18:00.310Z,50
2019-01-16T04:18:50.411Z,50
2019-01-16T04:19:40.914Z,50
2019-01-16T04:20:31.018Z,50
2019-01-16T04:21:20.579Z,50
2019-01-16T04:22:10.656Z,50
2019-01-16T04:23:00.457Z,50
2019-01-16T04:23:50.744Z,49.9
2019-01-16T04:24:40.498Z,50
2019-01-16T04:25:30.699Z,49.9
2019-01-16T04:26:21.095Z,49.9
2019-01-16T04:27:11.019Z,49.9
2019-01-16T04:28:01.206Z,49.9
2019-01-16T04:28:50.504Z,49.9
2019-01-16T04:29:41.338Z,49.9
2019-01-16T04:30:30.883Z,49.9
2019-01-16T04:31:21.211Z,49.9
2019-01-16T04:32:11.283Z,49.9
2019-01-16T04:33:01.379Z,49.9
2019-01-16T04:33:51.128Z,49.9
2019-01-16T04:34:41.452Z,49.9
2019-01-16T04:35:31.269Z,49.9
2019-01-16T04:36:21.584Z,49.9
2019-01-16T04:37:11.597Z,49.9
2019-01-16T04:38:01.470Z,49.9
2019-01-16T04:38:51.737Z,49.9
2019-01-16T04:39:41.769Z,49.9
2019-01-16T04:40:31.857Z,49.9
2019-01-16T04:41:21.685Z,49.9
2019-01-16T04:42:12.094Z,49.9
2019-01-16T04:43:01.792Z,49.9
2019-01-16T04:43:51.496Z,49.9
2019-01-16T04:44:41.916Z,49.9
2019-01-16T04:45:31.631Z,49.9
2019-01-16T04:46:22.215Z,49.9
2019-01-16T04:47:12.284Z,49.9
2019-01-16T04:48:02.336Z,49.9
2019-01-16T04:48:52.451Z,49.9
2019-01-16T04:49:42.168Z,49.8
2019-01-16T04:50:32.224Z,49.9
2019-01-16T04:51:22.338Z,49.8
2019-01-16T04:52:12.331Z,49.8
2019-01-16T04:53:02.661Z,49.8
2019-01-16T04:53:52.753Z,49.8
2019-01-16T04:54:42.810Z,49.8
2019-01-16T04:55:32.826Z,49.8
2019-01-16T04:56:22.679Z,49.8
2019-01-16T04:57:12.960Z,49.8
2019-01-16T04:58:02.993Z,49.8
2019-01-16T04:58:53.136Z,49.8
2019-01-16T04:59:42.283Z,49.8
2019-01-16T05:00:32.988Z,49.8
2019-01-16T05:01:22.953Z,49.8
2019-01-16T05:02:13.328Z,49.8
2019-01-16T05:03:03.353Z,49.8
2019-01-16T05:03:53.128Z,49.8
2019-01-16T05:04:43.470Z,49.8
2019-01-16T05:05:32.953Z,49.8
2019-01-16T05:06:23.301Z,49.8
2019-01-16T05:07:13.400Z,49.8
2019-01-16T05:08:03.148Z,49.8
2019-01-16T05:08:54.207Z,49.8
2019-01-16T05:09:43.982Z,49.8
2019-01-16T05:10:34.060Z,49.8
2019-01-16T05:11:23.373Z,49.8
2019-01-16T05:12:13.970Z,49.7
2019-01-16T05:13:04.500Z,49.7
2019-01-16T05:13:54.547Z,49.7
2019-01-16T05:14:44.040Z,49.7
2019-01-16T05:15:34.393Z,49.7
2019-01-16T05:16:24.444Z,49.7
2019-01-16T05:17:14.492Z,49.7
2019-01-16T05:18:04.349Z,49.7
2019-01-16T05:18:54.658Z,49.7
2019-01-16T05:19:44.966Z,49.7
2019-01-16T05:20:34.724Z,49.7
2019-01-16T05:21:24.273Z,49.7
2019-01-16T05:22:14.544Z,49.6
2019-01-16T05:23:05.161Z,49.7
2019-01-16T05:23:55.243Z,49.7
2019-01-16T05:24:45.274Z,49.6
2019-01-16T05:25:35.045Z,49.6
2019-01-16T05:26:25.456Z,49.6
2019-01-16T05:27:15.456Z,49.6
2019-01-16T05:28:05.524Z,49.6
2019-01-16T05:28:55.006Z,49.6
2019-01-16T05:29:45.450Z,49.6
2019-01-16T05:30:35.659Z,49.6
2019-01-16T05:31:25.446Z,49.6
2019-01-16T05:32:15.783Z,49.6
2019-01-16T05:33:05.841Z,49.6
2019-01-16T05:33:55.881Z,49.6
2019-01-16T05:34:45.926Z,49.6
2019-01-16T05:35:36.009Z,49.6
2019-01-16T05:36:25.528Z,49.6
2019-01-16T05:37:15.853Z,49.6
2019-01-16T05:38:06.213Z,49.6
2019-01-16T05:38:56.243Z,49.6
2019-01-16T05:39:46.008Z,49.6
2019-01-16T05:40:36.362Z,49.6
2019-01-16T05:41:26.133Z,49.6
2019-01-16T05:42:16.446Z,49.6
2019-01-16T05:43:06.233Z,49.6
2019-01-16T05:43:56.565Z,49.6
2019-01-16T05:44:46.610Z,49.6
2019-01-16T05:45:36.118Z,49.5
2019-01-16T05:46:26.706Z,49.5
2019-01-16T05:47:16.486Z,49.5
2019-01-16T05:48:06.824Z,49.5
2019-01-16T05:48:56.586Z,49.5
2019-01-16T05:49:51.759Z,49.5
2019-01-16T05:50:36.455Z,49.5
2019-01-16T05:51:27.055Z,49.5
2019-01-16T05:52:16.815Z,49.5
2019-01-16T05:53:06.912Z,49.5
2019-01-16T05:53:57.219Z,49.5
2019-01-16T05:54:47.045Z,49.4
2019-01-16T05:55:36.805Z,49.5
2019-01-16T05:56:26.830Z,49.4
2019-01-16T05:57:17.427Z,49.4
2019-01-16T05:58:07.552Z,49.4
2019-01-16T05:58:56.987Z,49.4
2019-01-16T05:59:47.342Z,49.4
2019-01-16T06:00:37.761Z,49.4
2019-01-16T06:01:27.749Z,49.4
2019-01-16T06:02:17.850Z,49.4
2019-01-16T06:03:08.087Z,49.4
2019-01-16T06:03:57.900Z,49.4
2019-01-16T06:04:47.369Z,49.4
2019-01-16T06:06:45.734Z,49.4
2019-01-16T06:07:35.535Z,49.4
2019-01-16T06:08:26.138Z,49.4
2019-01-16T06:09:17.647Z,49.4
2019-01-16T06:10:06.278Z,49.4
2019-01-16T06:10:56.330Z,49.4
2019-01-16T06:11:46.328Z,49.4
2019-01-16T06:12:36.123Z,49.4
2019-01-16T06:13:26.224Z,49.4
2019-01-16T06:14:16.555Z,49.4
2019-01-16T06:15:06.302Z,49.4
2019-01-16T06:15:56.657Z,49.4
2019-01-16T06:16:46.416Z,49.4
2019-01-16T06:17:36.437Z,49.3
2019-01-16T06:18:26.900Z,49.4
2019-01-16T06:19:16.322Z,49.3
2019-01-16T06:20:06.907Z,49.3
2019-01-16T06:20:56.674Z,49.3
2019-01-16T06:21:46.997Z,49.3
2019-01-16T06:22:36.769Z,49.3
2019-01-16T06:23:27.247Z,49.3
2019-01-16T06:24:17.212Z,49.3
2019-01-16T06:25:07.030Z,49.3
2019-01-16T06:25:57.327Z,49.3
2019-01-16T06:26:47.059Z,49.3
2019-01-16T06:27:37.466Z,49.3
2019-01-16T06:28:27.515Z,49.3
2019-01-16T06:29:17.225Z,49.3
2019-01-16T06:30:07.566Z,49.3
2019-01-16T06:30:56.835Z,49.3
2019-01-16T06:31:46.926Z,49.3
2019-01-16T06:32:36.964Z,49.3
2019-01-16T06:33:27.376Z,49.3
2019-01-16T06:34:17.944Z,49.3
2019-01-16T06:35:07.919Z,49.3
2019-01-16T06:35:57.701Z,49.3
2019-01-16T06:36:47.027Z,49.3
2019-01-16T06:37:38.061Z,49.3
2019-01-16T06:38:28.106Z,49.2
2019-01-16T06:39:18.153Z,49.3
2019-01-16T06:40:07.953Z,49.2
2019-01-16T06:40:58.001Z,49.2
2019-01-16T06:41:47.555Z,49.2
2019-01-16T06:42:38.388Z,49.2
2019-01-16T06:43:28.158Z,49.2
2019-01-16T06:44:18.252Z,49.2
2019-01-16T06:45:07.460Z,49.2
2019-01-16T06:45:58.050Z,49.2
2019-01-16T06:46:48.713Z,49.2
2019-01-16T06:47:38.436Z,49.2
2019-01-16T06:48:27.942Z,49.1
2019-01-16T06:49:18.275Z,49.1
2019-01-16T06:50:16.291Z,49.1
2019-01-16T06:50:58.663Z,49.1
2019-01-16T06:51:48.995Z,49.1
2019-01-16T06:52:39.058Z,49.1
2019-01-16T06:53:28.855Z,49.1
2019-01-16T06:54:19.162Z,49.1
2019-01-16T06:55:09.025Z,49.1
2019-01-16T06:55:59.010Z,49.1
2019-01-16T06:56:49.333Z,49.1
2019-01-16T06:57:39.187Z,49.1
2019-01-16T06:58:29.170Z,49.1
2019-01-16T06:59:18.484Z,49.1
2019-01-16T07:00:09.574Z,49.1
2019-01-16T07:00:59.132Z,49.1
2019-01-16T07:01:49.447Z,49.1
2019-01-16T07:02:39.717Z,49.1
2019-01-16T07:03:29.300Z,49.1
2019-01-16T07:04:19.554Z,49.1
2019-01-16T07:06:45.634Z,49.1
2019-01-16T07:07:35.706Z,49.1
2019-01-16T07:08:25.288Z,49.1
2019-01-16T07:09:16.099Z,49.1
2019-01-16T07:10:05.674Z,49
2019-01-16T07:10:56.285Z,49.1
2019-01-16T07:11:45.766Z,49.1
2019-01-16T07:12:35.781Z,49
2019-01-16T07:13:26.377Z,49
2019-01-16T07:14:16.466Z,49
2019-01-16T07:15:06.466Z,49
2019-01-16T07:15:56.270Z,49
2019-01-16T07:16:46.326Z,49
2019-01-16T07:17:36.661Z,49
2019-01-16T07:18:26.723Z,49
2019-01-16T07:19:16.790Z,49
2019-01-16T07:20:14.259Z,49
2019-01-16T07:20:56.606Z,48.9
2019-01-16T07:21:46.934Z,48.9
2019-01-16T07:22:36.993Z,49
2019-01-16T07:23:27.060Z,48.9
2019-01-16T07:24:16.835Z,48.9
2019-01-16T07:25:07.163Z,48.9
2019-01-16T07:25:57.238Z,48.9
2019-01-16T07:26:46.998Z,48.9
2019-01-16T07:27:37.357Z,48.9
2019-01-16T07:28:27.383Z,48.9
2019-01-16T07:29:17.180Z,48.9
2019-01-16T07:30:07.513Z,48.9
2019-01-16T07:30:57.551Z,48.9
2019-01-16T07:31:47.660Z,48.9
2019-01-16T07:32:37.185Z,48.9
2019-01-16T07:33:27.777Z,48.9
2019-01-16T07:34:17.500Z,48.9
2019-01-16T07:35:07.832Z,48.9
2019-01-16T07:35:57.630Z,48.9
2019-01-16T07:36:47.385Z,48.9
2019-01-16T07:37:37.515Z,48.9
2019-01-16T07:38:28.107Z,48.9
2019-01-16T07:39:18.125Z,48.9
2019-01-16T07:40:07.897Z,48.8
2019-01-16T07:40:58.017Z,48.9
2019-01-16T07:41:48.020Z,48.8
2019-01-16T07:42:38.103Z,48.8
2019-01-16T07:43:28.469Z,48.8
2019-01-16T07:44:17.938Z,48.8
2019-01-16T07:45:08.013Z,48.8
2019-01-16T07:45:58.557Z,48.8
2019-01-16T07:46:49.979Z,48.8
2019-01-16T07:47:38.689Z,48.8
2019-01-16T07:48:28.936Z,48.8
2019-01-16T07:49:18.779Z,48.8
2019-01-16T07:50:08.847Z,48.8
2019-01-16T07:50:58.905Z,48.8
2019-01-16T07:51:48.730Z,48.8
2019-01-16T07:52:38.534Z,48.8
2019-01-16T07:53:29.081Z,48.8
2019-01-16T07:54:18.866Z,48.8
2019-01-16T07:55:09.192Z,48.8
2019-01-16T07:55:58.701Z,48.8
2019-01-16T07:56:49.061Z,48.8
2019-01-16T07:57:39.083Z,48.8
2019-01-16T07:58:29.148Z,48.8
2019-01-16T07:59:26.300Z,48.8
2019-01-16T08:00:09.543Z,48.8
2019-01-16T08:00:59.608Z,48.8
2019-01-16T08:01:49.641Z,48.7
2019-01-16T08:02:39.711Z,48.8
2019-01-16T08:03:29.756Z,48.7
2019-01-16T08:04:19.268Z,48.8
2019-01-16T08:05:09.861Z,48.7
2019-01-16T08:05:59.933Z,48.7
2019-01-16T08:06:49.711Z,48.7
2019-01-16T08:07:40.039Z,48.7
2019-01-16T08:08:29.806Z,48.7
2019-01-16T08:09:19.888Z,48.7
2019-01-16T08:10:09.380Z,48.7
2019-01-16T08:10:59.994Z,48.7
2019-01-16T08:11:49.775Z,48.7
2019-01-16T08:12:40.380Z,48.7
2019-01-16T08:13:30.446Z,48.7
2019-01-16T08:14:20.487Z,48.7
2019-01-16T08:15:10.548Z,48.6
2019-01-16T08:16:00.314Z,48.6
2019-01-16T08:16:49.840Z,48.6
2019-01-16T08:17:40.787Z,48.6
2019-01-16T08:18:30.771Z,48.6
2019-01-16T08:19:20.842Z,48.6
2019-01-16T08:20:10.647Z,48.6
2019-01-16T08:21:00.952Z,48.6
2019-01-16T08:21:50.722Z,48.6
2019-01-16T08:22:41.072Z,48.6
2019-01-16T08:23:31.107Z,48.6
2019-01-16T08:24:21.179Z,48.6
2019-01-16T08:25:11.272Z,48.6
2019-01-16T08:26:01.009Z,48.6
2019-01-16T08:26:50.857Z,48.6
2019-01-16T08:27:41.123Z,48.6
2019-01-16T08:28:31.194Z,48.6
2019-01-16T08:29:20.962Z,48.6
2019-01-16T08:30:11.294Z,48.6
2019-01-16T08:31:01.074Z,48.6
2019-01-16T08:31:51.684Z,48.6
2019-01-16T08:32:41.247Z,48.7
2019-01-16T08:33:31.227Z,48.7
2019-01-16T08:34:21.561Z,48.8
2019-01-16T08:35:11.899Z,48.8
2019-01-16T08:36:01.403Z,48.8
2019-01-16T08:36:52.061Z,48.9
2019-01-16T08:37:41.789Z,48.9
2019-01-16T08:38:31.945Z,48.9
2019-01-16T08:39:21.626Z,48.9
2019-01-16T08:40:12.293Z,49
2019-01-16T08:41:02.288Z,49
2019-01-16T08:41:52.087Z,49.1
2019-01-16T08:42:42.394Z,49.1
2019-01-16T08:43:32.465Z,49.2
2019-01-16T08:44:22.526Z,49.3
2019-01-16T08:45:12.323Z,49.3
2019-01-16T08:46:02.364Z,49.4
2019-01-16T08:46:52.688Z,49.4
2019-01-16T08:47:42.785Z,49.4
2019-01-16T08:48:32.255Z,49.5
2019-01-16T08:49:22.636Z,49.5
2019-01-16T08:50:12.658Z,49.6
2019-01-16T08:51:02.987Z,49.6
2019-01-16T08:51:52.530Z,49.8
2019-01-16T08:52:43.073Z,49.8
2019-01-16T08:53:33.133Z,49.9
2019-01-16T08:54:22.947Z,49.9
2019-01-16T08:55:13.260Z,49.9
2019-01-16T08:56:03.302Z,50
2019-01-16T08:56:53.370Z,50.1
2019-01-16T08:57:43.433Z,50.1
2019-01-16T08:58:33.492Z,50.2
2019-01-16T08:59:23.273Z,50.2
2019-01-16T09:00:13.607Z,50.3
2019-01-16T09:01:02.805Z,50.3
2019-01-16T09:01:53.434Z,50.4
2019-01-16T09:02:43.489Z,50.4
2019-01-16T09:03:33.822Z,50.5
2019-01-16T09:04:23.869Z,50.6
2019-01-16T09:05:13.400Z,50.6
2019-01-16T09:06:03.217Z,50.8
2019-01-16T09:06:54.109Z,50.8
2019-01-16T09:07:44.094Z,50.9
2019-01-16T09:08:33.592Z,51
2019-01-16T09:09:23.952Z,51.1
2019-01-16T09:10:13.779Z,51.2
2019-01-16T09:11:04.330Z,51.3
2019-01-16T09:11:54.124Z,51.3
2019-01-16T09:12:43.397Z,51.3
2019-01-16T09:13:34.496Z,51.3
2019-01-16T09:14:24.056Z,51.3
2019-01-16T09:15:14.341Z,51.4
2019-01-16T09:16:04.125Z,51.4
2019-01-16T09:16:54.483Z,51.4
2019-01-16T09:17:46.306Z,51.4
2019-01-16T09:18:34.584Z,51.4
2019-01-16T09:19:24.951Z,51.4
2019-01-16T09:20:14.951Z,51.4
2019-01-16T09:21:05.011Z,51.4
2019-01-16T09:21:55.046Z,51.4
2019-01-16T09:22:46.959Z,51.4
2019-01-16T09:23:35.166Z,51.4
2019-01-16T09:24:24.670Z,51.4
2019-01-16T09:25:15.284Z,51.4
2019-01-16T09:26:05.338Z,51.4
2019-01-16T09:26:55.103Z,51.4
2019-01-16T09:27:45.165Z,51.4
2019-01-16T09:28:35.490Z,51.4
2019-01-16T09:29:25.562Z,51.4
2019-01-16T09:30:15.340Z,51.4
2019-01-16T09:31:05.120Z,51.4
2019-01-16T09:31:55.726Z,51.4
2019-01-16T09:32:45.585Z,51.4
2019-01-16T09:33:35.335Z,51.4
2019-01-16T09:34:25.935Z,51.4
2019-01-16T09:35:15.473Z,51.4
2019-01-16T09:36:06.015Z,51.4
2019-01-16T09:36:55.869Z,51.4
2019-01-16T09:37:45.855Z,51.4
2019-01-16T09:38:36.177Z,51.4
2019-01-16T09:39:25.964Z,51.4
2019-01-16T09:40:16.287Z,51.4
2019-01-16T09:41:05.365Z,51.4
2019-01-16T09:41:56.400Z,51.5
2019-01-16T09:42:46.255Z,51.5
2019-01-16T09:43:36.530Z,51.5
2019-01-16T09:44:26.080Z,51.6
2019-01-16T09:45:16.632Z,51.6
2019-01-16T09:46:06.407Z,51.7
2019-01-16T09:46:56.455Z,51.8
2019-01-16T09:47:46.832Z,51.8
2019-01-16T09:48:36.297Z,51.9
2019-01-16T09:49:26.364Z,52
2019-01-16T09:50:16.684Z,52.1
2019-01-16T09:51:07.098Z,52.1
2019-01-16T09:51:57.154Z,52.1
2019-01-16T09:52:46.871Z,52.3
2019-01-16T09:53:37.203Z,52.3
2019-01-16T09:55:17.309Z,52.4
2019-01-16T09:56:07.414Z,52.5
2019-01-16T09:56:57.141Z,52.6
2019-01-16T09:57:47.531Z,52.6
2019-01-16T09:58:37.248Z,52.7
2019-01-16T09:59:27.316Z,52.7
2019-01-16T10:00:17.148Z,52.8
2019-01-16T10:01:07.411Z,52.8
2019-01-16T10:01:57.201Z,52.8
2019-01-16T10:02:47.541Z,52.9
2019-01-16T10:03:37.603Z,52.9
2019-01-16T10:04:27.711Z,52.9
2019-01-16T10:05:17.975Z,52.9
2019-01-16T10:07:44.930Z,53
2019-01-16T10:08:35.300Z,53
2019-01-16T10:09:25.575Z,53.1
2019-01-16T10:10:15.648Z,53.1
2019-01-16T10:11:05.976Z,53.1
2019-01-16T10:11:56.030Z,53.1
2019-01-16T10:12:45.811Z,53.1
2019-01-16T10:13:35.585Z,53.2
2019-01-16T10:14:26.267Z,53.2
2019-01-16T10:15:16.042Z,53.2
2019-01-16T10:16:06.323Z,53.3
2019-01-16T10:16:56.366Z,53.3
2019-01-16T10:17:46.155Z,53.3
2019-01-16T10:18:35.926Z,53.4
2019-01-16T10:19:26.252Z,53.4
2019-01-16T10:20:16.317Z,53.4
2019-01-16T10:21:06.650Z,53.6
2019-01-16T10:21:56.152Z,53.6
2019-01-16T10:22:46.262Z,53.6
2019-01-16T10:23:36.535Z,53.6
2019-01-16T10:24:26.613Z,53.7
2019-01-16T10:25:16.934Z,53.7
2019-01-16T10:26:07.000Z,53.8
2019-01-16T10:26:57.042Z,53.8
2019-01-16T10:27:46.332Z,53.9
2019-01-16T10:28:36.876Z,53.9
2019-01-16T10:29:26.936Z,53.9
2019-01-16T10:30:16.167Z,53.9
2019-01-16T10:31:06.751Z,53.9
2019-01-16T10:31:56.641Z,54
2019-01-16T10:32:47.169Z,54.1
2019-01-16T10:33:37.224Z,54.1
2019-01-16T10:34:27.276Z,54.1
2019-01-16T10:35:17.609Z,54.2
2019-01-16T10:36:06.896Z,54.2
2019-01-16T10:36:57.727Z,54.2
2019-01-16T10:37:47.238Z,54.2
2019-01-16T10:38:37.275Z,54.2
2019-01-16T10:39:27.623Z,54.3
2019-01-16T10:40:18.009Z,54.3
2019-01-16T10:41:08.010Z,54.3
2019-01-16T10:41:57.508Z,54.3
2019-01-16T10:42:47.836Z,54.3
2019-01-16T10:43:37.673Z,54.3
2019-01-16T10:44:27.725Z,54.4
2019-01-16T10:45:19.554Z,54.4
2019-01-16T10:46:08.085Z,54.4
2019-01-16T10:46:57.848Z,54.4
2019-01-16T10:47:48.488Z,54.4
2019-01-16T10:48:37.695Z,54.4
2019-01-16T10:49:28.567Z,54.4
2019-01-16T10:50:17.804Z,54.4
2019-01-16T10:51:08.409Z,54.4
2019-01-16T10:51:58.513Z,54.4
2019-01-16T10:52:48.528Z,54.4
2019-01-16T10:53:38.581Z,54.4
2019-01-16T10:54:28.707Z,54.4
2019-01-16T10:55:18.432Z,54.4
2019-01-16T10:56:08.485Z,54.4
2019-01-16T10:56:59.122Z,54.4
2019-01-16T10:57:48.585Z,54.4
2019-01-16T10:58:38.917Z,54.5
2019-01-16T10:59:28.699Z,54.5
2019-01-16T11:00:19.302Z,54.5
2019-01-16T11:01:08.339Z,54.5
2019-01-16T11:01:59.424Z,54.5
2019-01-16T11:02:49.190Z,54.6
2019-01-16T11:03:39.292Z,54.6
2019-01-16T11:04:28.755Z,54.6
2019-01-16T11:05:19.104Z,54.6
2019-01-16T11:06:08.864Z,54.6
2019-01-16T11:06:58.925Z,54.7
2019-01-16T11:07:49.819Z,54.8
2019-01-16T11:08:39.887Z,54.8
2019-01-16T11:09:29.395Z,54.8
2019-01-16T11:10:19.722Z,54.8
2019-01-16T11:11:18.630Z,54.8
2019-01-16T11:11:59.539Z,54.8
2019-01-16T11:12:49.881Z,54.9
2019-01-16T11:13:40.134Z,54.9
2019-01-16T11:14:29.996Z,54.9
2019-01-16T11:15:19.772Z,54.9
2019-01-16T11:16:10.394Z,55
2019-01-16T11:17:01.106Z,55